createdAt,value
2022-12-24T06:46:18.450Z,99435.66
2022-12-24T06:48:47.648Z,99430.06
2022-12-24T06:51:20.051Z,99437.81
2022-12-24T06:53:50.918Z,99432.53
2022-12-24T06:56:20.397Z,99435.22
2022-12-24T06:58:48.915Z,99432.25
2022-12-24T07:01:19.557Z,99436.87
2022-12-24T07:03:47.932Z,99432.62
2022-12-24T07:06:24.509Z,99424.00
2022-12-24T07:08:52.688Z,99440.84
2022-12-24T07:11:22.125Z,99437.03
2022-12-24T07:13:49.931Z,99440.69
2022-12-24T07:16:18.473Z,99444.87
2022-12-24T07:18:46.989Z,99434.81
2022-12-24T07:21:15.063Z,99442.84
2022-12-24T07:23:43.056Z,99423.63
2022-12-24T08:05:19.957Z,99438.72
2022-12-24T08:07:48.178Z,99428.19
2022-12-24T08:10:15.909Z,99425.44
2022-12-24T08:12:43.829Z,99422.25
2022-12-24T08:15:12.562Z,99419.03
2022-12-24T08:17:40.422Z,99425.38
2022-12-24T08:20:12.355Z,99414.41
2022-12-24T08:22:40.544Z,99414.16
2022-12-24T08:25:08.799Z,99418.91
2022-12-24T08:27:37.075Z,99412.34
2022-12-24T08:30:06.228Z,99414.09
2022-12-24T08:32:34.227Z,99400.56
2022-12-24T08:35:02.712Z,99412.91
2022-12-24T08:37:31.043Z,99394.00
2022-12-24T08:39:58.849Z,99402.88
2022-12-24T08:42:26.756Z,99409.44
2022-12-24T08:44:54.945Z,99401.59
2022-12-24T08:47:22.685Z,99397.38
2022-12-24T08:49:50.511Z,99402.62
2022-12-24T08:52:18.652Z,99399.87
2022-12-24T08:54:46.529Z,99404.06
2022-12-24T08:57:14.984Z,99393.84
2022-12-24T08:59:43.450Z,99392.19
2022-12-24T09:02:11.301Z,99388.44
2022-12-24T09:04:42.854Z,99401.41
2022-12-24T09:07:11.469Z,99400.50
2022-12-24T09:09:39.298Z,99406.84
2022-12-24T09:45:41.382Z,99379.59
2022-12-24T09:48:22.140Z,99384.84
2022-12-24T09:51:09.543Z,99385.34
2022-12-24T09:53:43.093Z,99380.84
2022-12-24T09:56:17.274Z,99384.53
2022-12-24T09:58:49.677Z,99377.00
2022-12-24T10:01:18.700Z,99384.19
2022-12-24T10:03:47.840Z,99379.91
2022-12-24T10:06:46.333Z,99375.72
2022-12-24T10:09:29.289Z,99373.22
2022-12-24T12:56:20.752Z,99443.97
2022-12-24T12:58:59.588Z,99450.91
2022-12-24T13:01:55.917Z,99442.53
2022-12-24T13:05:04.484Z,99443.44
2022-12-24T13:08:25.897Z,99444.19
2022-12-24T13:11:06.100Z,99446.03
2022-12-24T15:40:22.175Z,99603.59
2022-12-24T15:42:52.300Z,99594.22
2022-12-24T15:45:27.565Z,99605.06
2022-12-24T15:48:10.436Z,99609.41
2022-12-24T15:51:03.118Z,99598.97
2022-12-24T15:53:44.087Z,99609.81
2022-12-24T15:56:14.132Z,99611.41
2022-12-24T15:58:44.903Z,99621.88
2022-12-24T16:01:26.887Z,99622.53
2022-12-24T16:03:56.762Z,99621.50
2022-12-24T16:06:24.812Z,99626.59
2022-12-24T16:08:52.807Z,99625.63
2022-12-24T16:11:35.557Z,99608.47
2022-12-24T16:14:14.098Z,99633.16
2022-12-24T16:16:49.593Z,99635.84
2022-12-24T16:19:23.674Z,99636.50
2022-12-24T16:21:58.221Z,99646.03
2022-12-24T16:24:35.626Z,99648.56
2022-12-24T16:27:13.261Z,99640.81
2022-12-24T16:29:41.476Z,99644.75
2022-12-24T16:32:31.252Z,99641.97
2022-12-24T16:34:59.794Z,99654.12
2022-12-24T16:37:28.715Z,99661.09
2022-12-24T16:39:57.497Z,99651.16
2022-12-24T16:42:43.907Z,99656.44
2022-12-24T16:45:12.082Z,99667.47
2022-12-24T16:47:43.229Z,99659.28
2022-12-24T16:50:16.903Z,99659.13
2022-12-24T16:52:44.942Z,99661.62
2022-12-24T16:55:16.564Z,99663.84
2022-12-24T16:57:44.989Z,99664.72
2022-12-24T17:14:31.918Z,99677.25
2022-12-24T17:17:27.052Z,99682.69
2022-12-24T17:20:06.803Z,99690.22
2022-12-24T17:23:00.179Z,99685.06
2022-12-24T17:25:47.380Z,99700.44
2022-12-24T17:28:39.622Z,99705.75
2022-12-24T17:31:23.924Z,99707.69
2022-12-24T17:34:16.985Z,99710.78
2022-12-24T17:37:02.510Z,99711.44
2022-12-24T17:39:41.037Z,99715.34
2022-12-24T17:42:27.519Z,99726.06
2022-12-24T17:45:07.483Z,99727.56
2022-12-24T17:47:51.549Z,99725.03
2022-12-24T17:50:35.720Z,99730.09
2022-12-24T17:53:19.217Z,99731.75
2022-12-24T17:56:00.394Z,99729.81
2022-12-24T17:58:44.191Z,99736.59
2022-12-24T18:01:38.161Z,99731.38
2022-12-24T18:04:06.809Z,99728.31
2022-12-24T18:06:48.840Z,99736.94
2022-12-24T18:09:37.570Z,99742.87
2022-12-24T18:12:23.645Z,99752.28
2022-12-24T18:15:03.261Z,99753.94
2022-12-24T18:17:45.349Z,99755.03
2022-12-24T18:20:28.290Z,99752.19
2022-12-24T18:23:08.852Z,99767.72
2022-12-24T18:25:43.045Z,99773.75
2022-12-24T18:28:36.159Z,99775.56
2022-12-24T18:31:23.303Z,99779.09
2022-12-24T18:34:01.059Z,99781.25
2022-12-24T20:41:20.616Z,99946.81
2022-12-24T20:43:50.010Z,99956.37
2022-12-24T20:46:20.028Z,99957.38
2022-12-24T20:48:49.026Z,99960.03
2022-12-24T20:51:24.798Z,99968.00
2022-12-24T20:53:54.816Z,99969.56
2022-12-24T20:56:22.921Z,99989.03
2022-12-24T20:58:51.059Z,99983.75
2022-12-24T21:01:24.702Z,99984.91
2022-12-24T21:03:54.653Z,99981.78
2022-12-24T21:06:25.179Z,99996.88
2022-12-24T21:08:54.041Z,100006.22
2022-12-24T21:11:41.875Z,100001.22
2022-12-24T21:14:11.395Z,100010.97
2022-12-24T21:16:41.474Z,99996.66
2022-12-24T21:19:12.300Z,100005.50
2022-12-24T21:21:40.862Z,100016.69
2022-12-24T21:24:09.994Z,100020.47
2022-12-24T21:26:38.654Z,100024.69
2022-12-24T21:29:09.396Z,100024.66
2022-12-24T21:31:38.041Z,100026.69
2022-12-24T21:34:07.194Z,100031.97
2022-12-24T21:36:35.109Z,100031.41
2022-12-24T21:39:03.159Z,100038.94
2022-12-24T21:41:31.580Z,100041.75
2022-12-24T21:44:02.341Z,100041.09
2022-12-24T21:46:30.339Z,100046.97
2022-12-24T21:49:17.273Z,100049.47
2022-12-24T21:51:47.143Z,100057.91
2022-12-24T21:54:27.396Z,100059.81
2022-12-24T21:57:17.093Z,100058.16
